sensor_id;sensor_type;location;lat;lon;timestamp;pressure;altitude;pressure_sealevel;temperature;humidity
40982;BME280;26708;50.304;19.028;2023-06-10T00:01:44;98074.88;;;18.28;68.84
40982;BME280;26708;50.304;19.028;2023-06-10T00:03:49;97941.56;;;17.42;69.22
40982;BME280;26708;50.304;19.028;2023-06-10T00:05:56;97929.22;;;17.21;68.59
40982;BME280;26708;50.304;19.028;2023-06-10T00:08:03;97952.41;;;17.59;68.53
40982;BME280;26708;50.304;19.028;2023-06-10T00:10:10;98079.31;;;18.28;68.74
40982;BME280;26708;50.304;19.028;2023-06-10T00:12:15;98005.84;;;17.90;68.76
40982;BME280;26708;50.304;19.028;2023-06-10T00:14:21;98071.28;;;18.29;68.88
40982;BME280;26708;50.304;19.028;2023-06-10T00:16:26;97859.38;;;17.03;68.75
40982;BME280;26708;50.304;19.028;2023-06-10T00:18:31;97866.75;;;16.95;68.84
40982;BME280;26708;50.304;19.028;2023-06-10T00:20:38;97932.97;;;17.37;68.60
40982;BME280;26708;50.304;19.028;2023-06-10T00:22:43;98069.91;;;18.21;68.59
40982;BME280;26708;50.304;19.028;2023-06-10T00:24:53;98053.81;;;18.04;68.63
40982;BME280;26708;50.304;19.028;2023-06-10T00:26:57;98078.59;;;18.24;68.66
40982;BME280;26708;50.304;19.028;2023-06-10T00:29:02;97977.41;;;17.50;68.54
40982;BME280;26708;50.304;19.028;2023-06-10T00:31:08;98073.34;;;18.23;68.49
40982;BME280;26708;50.304;19.028;2023-06-10T00:33:14;98077.91;;;18.19;68.54
40982;BME280;26708;50.304;19.028;2023-06-10T00:35:18;98077.09;;;18.17;68.49
40982;BME280;26708;50.304;19.028;2023-06-10T00:37:24;97896.53;;;17.00;68.49
40982;BME280;26708;50.304;19.028;2023-06-10T00:39:29;97937.75;;;17.27;68.59
40982;BME280;26708;50.304;19.028;2023-06-10T00:41:37;98048.28;;;17.88;68.59
40982;BME280;26708;50.304;19.028;2023-06-10T00:43:44;98069.47;;;17.88;68.67
40982;BME280;26708;50.304;19.028;2023-06-10T00:45:51;97923.53;;;17.08;69.01
40982;BME280;26708;50.304;19.028;2023-06-10T00:47:56;98088.88;;;18.10;69.19
40982;BME280;26708;50.304;19.028;2023-06-10T00:50:02;98092.56;;;18.06;69.24
40982;BME280;26708;50.304;19.028;2023-06-10T00:52:08;97889.38;;;16.81;69.29
40982;BME280;26708;50.304;19.028;2023-06-10T00:54:16;97853.88;;;16.63;69.32
40982;BME280;26708;50.304;19.028;2023-06-10T00:56:23;97846.69;;;16.67;69.27
40982;BME280;26708;50.304;19.028;2023-06-10T00:58:30;98111.91;;;18.08;69.15
40982;BME280;26708;50.304;19.028;2023-06-10T01:00:36;98019.44;;;17.59;69.38
40982;BME280;26708;50.304;19.028;2023-06-10T01:02:41;98107.44;;;18.10;69.36
40982;BME280;26708;50.304;19.028;2023-06-10T01:04:46;98056.44;;;17.82;69.19
40982;BME280;26708;50.304;19.028;2023-06-10T01:06:57;98111.91;;;18.08;69.12
40982;BME280;26708;50.304;19.028;2023-06-10T01:09:21;98070.81;;;17.77;69.42
40982;BME280;26708;50.304;19.028;2023-06-10T01:11:40;97966.81;;;17.29;69.24
40982;BME280;26708;50.304;19.028;2023-06-10T01:13:55;98096.88;;;18.09;69.41
40982;BME280;26708;50.304;19.028;2023-06-10T01:16:04;98100.31;;;18.11;69.09
40982;BME280;26708;50.304;19.028;2023-06-10T01:18:10;98036.44;;;17.75;69.19
40982;BME280;26708;50.304;19.028;2023-06-10T01:20:16;97844.06;;;16.44;69.02
40982;BME280;26708;50.304;19.028;2023-06-10T01:22:26;98081.91;;;17.86;69.26
40982;BME280;26708;50.304;19.028;2023-06-10T01:24:33;98062.44;;;17.87;69.13
40982;BME280;26708;50.304;19.028;2023-06-10T01:26:39;98038.28;;;17.73;69.05
40982;BME280;26708;50.304;19.028;2023-06-10T01:28:51;98084.56;;;18.08;69.21
40982;BME280;26708;50.304;19.028;2023-06-10T01:31:09;98094.91;;;18.14;69.38
40982;BME280;26708;50.304;19.028;2023-06-10T01:33:27;97915.63;;;17.08;69.25
40982;BME280;26708;50.304;19.028;2023-06-10T01:35:37;97938.75;;;17.25;69.28
40982;BME280;26708;50.304;19.028;2023-06-10T01:37:46;98095.75;;;18.14;69.19
40982;BME280;26708;50.304;19.028;2023-06-10T01:39:57;98035.59;;;17.75;69.14
40982;BME280;26708;50.304;19.028;2023-06-10T01:42:06;97896.53;;;17.00;69.21
40982;BME280;26708;50.304;19.028;2023-06-10T01:44:12;98095.84;;;18.13;69.43
40982;BME280;26708;50.304;19.028;2023-06-10T01:46:21;97889.25;;;16.84;69.37
40982;BME280;26708;50.304;19.028;2023-06-10T01:48:27;98051.72;;;17.90;69.39
40982;BME280;26708;50.304;19.028;2023-06-10T01:50:31;98074.25;;;18.00;69.38
40982;BME280;26708;50.304;19.028;2023-06-10T01:52:36;98103.59;;;18.17;69.45
40982;BME280;26708;50.304;19.028;2023-06-10T01:54:45;98063.94;;;17.94;69.15
40982;BME280;26708;50.304;19.028;2023-06-10T01:56:52;98103.72;;;18.14;69.29
40982;BME280;26708;50.304;19.028;2023-06-10T01:58:56;98104.59;;;18.15;69.15
40982;BME280;26708;50.304;19.028;2023-06-10T02:01:02;98075.91;;;17.81;69.24
40982;BME280;26708;50.304;19.028;2023-06-10T02:03:09;97915.94;;;16.99;69.22
40982;BME280;26708;50.304;19.028;2023-06-10T02:05:14;97958.06;;;17.27;69.24
40982;BME280;26708;50.304;19.028;2023-06-10T02:07:19;97898.84;;;16.86;69.21
40982;BME280;26708;50.304;19.028;2023-06-10T02:09:24;97946.91;;;17.19;69.13
40982;BME280;26708;50.304;19.028;2023-06-10T02:11:32;98064.41;;;17.82;69.16
40982;BME280;26708;50.304;19.028;2023-06-10T02:13:38;98135.41;;;18.17;69.13
40982;BME280;26708;50.304;19.028;2023-06-10T02:15:44;98123.97;;;18.15;69.34
40982;BME280;26708;50.304;19.028;2023-06-10T02:17:49;97903.47;;;16.80;69.20
40982;BME280;26708;50.304;19.028;2023-06-10T02:19:54;98011.78;;;17.52;69.11
40982;BME280;26708;50.304;19.028;2023-06-10T02:22:00;98083.06;;;17.79;69.06
40982;BME280;26708;50.304;19.028;2023-06-10T02:24:06;98015.56;;;17.45;68.98
40982;BME280;26708;50.304;19.028;2023-06-10T02:26:12;98127.56;;;18.14;69.26
40982;BME280;26708;50.304;19.028;2023-06-10T02:28:19;97945.91;;;17.00;69.11
40982;BME280;26708;50.304;19.028;2023-06-10T02:30:24;98117.03;;;18.13;68.95
40982;BME280;26708;50.304;19.028;2023-06-10T02:32:29;97884.19;;;16.78;69.04
40982;BME280;26708;50.304;19.028;2023-06-10T02:34:34;98029.22;;;17.34;69.44
40982;BME280;26708;50.304;19.028;2023-06-10T02:36:41;98148.97;;;18.08;69.23
40982;BME280;26708;50.304;19.028;2023-06-10T02:38:47;97989.94;;;17.24;69.33
40982;BME280;26708;50.304;19.028;2023-06-10T02:40:52;97911.50;;;16.78;69.34
40982;BME280;26708;50.304;19.028;2023-06-10T02:42:58;98113.75;;;18.06;69.54
40982;BME280;26708;50.304;19.028;2023-06-10T02:45:07;97900.91;;;16.78;69.59
40982;BME280;26708;50.304;19.028;2023-06-10T02:47:15;98071.41;;;17.83;69.42
40982;BME280;26708;50.304;19.028;2023-06-10T02:49:20;97927.28;;;16.80;69.29
40982;BME280;26708;50.304;19.028;2023-06-10T02:51:26;97947.44;;;17.05;69.36
40982;BME280;26708;50.304;19.028;2023-06-10T02:53:35;97913.66;;;16.90;69.35
40982;BME280;26708;50.304;19.028;2023-06-10T02:55:44;98120.03;;;18.04;69.46
40982;BME280;26708;50.304;19.028;2023-06-10T02:57:52;97908.00;;;16.76;69.38
40982;BME280;26708;50.304;19.028;2023-06-10T02:59:59;98132.06;;;18.12;69.44
40982;BME280;26708;50.304;19.028;2023-06-10T03:02:10;98037.13;;;17.59;69.18
40982;BME280;26708;50.304;19.028;2023-06-10T03:04:22;98119.84;;;18.08;69.39
40982;BME280;26708;50.304;19.028;2023-06-10T03:06:36;98033.63;;;17.57;69.54
40982;BME280;26708;50.304;19.028;2023-06-10T03:08:53;98089.47;;;17.74;69.22
40982;BME280;26708;50.304;19.028;2023-06-10T03:10:59;97940.66;;;16.98;69.35
40982;BME280;26708;50.304;19.028;2023-06-10T03:13:05;97891.09;;;16.57;69.10
40982;BME280;26708;50.304;19.028;2023-06-10T03:15:12;97958.84;;;16.84;69.31
40982;BME280;26708;50.304;19.028;2023-06-10T03:17:21;98011.47;;;17.36;69.48
40982;BME280;26708;50.304;19.028;2023-06-10T03:19:25;98026.69;;;17.31;69.60
40982;BME280;26708;50.304;19.028;2023-06-10T03:21:31;98133.53;;;17.98;69.76
40982;BME280;26708;50.304;19.028;2023-06-10T03:23:37;98045.31;;;17.28;69.81
40982;BME280;26708;50.304;19.028;2023-06-10T03:25:42;98070.91;;;17.51;69.87
40982;BME280;26708;50.304;19.028;2023-06-10T03:27:50;98050.50;;;17.31;70.03
40982;BME280;26708;50.304;19.028;2023-06-10T03:29:56;98052.81;;;17.40;70.16
40982;BME280;26708;50.304;19.028;2023-06-10T03:32:03;98110.88;;;17.68;70.21
40982;BME280;26708;50.304;19.028;2023-06-10T03:34:13;97953.44;;;16.87;70.39
40982;BME280;26708;50.304;19.028;2023-06-10T03:36:18;98058.88;;;17.42;70.29
40982;BME280;26708;50.304;19.028;2023-06-10T03:38:23;97991.25;;;17.12;69.87
40982;BME280;26708;50.304;19.028;2023-06-10T03:40:29;97997.69;;;17.05;69.88
40982;BME280;26708;50.304;19.028;2023-06-10T03:42:36;97964.84;;;16.88;69.83
40982;BME280;26708;50.304;19.028;2023-06-10T03:44:41;98039.75;;;17.36;69.52
40982;BME280;26708;50.304;19.028;2023-06-10T03:46:45;97933.31;;;16.83;69.60
40982;BME280;26708;50.304;19.028;2023-06-10T03:48:51;98154.97;;;18.13;69.59
40982;BME280;26708;50.304;19.028;2023-06-10T03:50:59;98012.59;;;17.31;69.73
40982;BME280;26708;50.304;19.028;2023-06-10T03:53:04;98163.53;;;18.20;69.52
40982;BME280;26708;50.304;19.028;2023-06-10T03:55:09;98089.97;;;17.60;69.19
40982;BME280;26708;50.304;19.028;2023-06-10T03:57:18;98059.28;;;17.55;69.20
40982;BME280;26708;50.304;19.028;2023-06-10T03:59:22;98121.28;;;17.95;69.22
40982;BME280;26708;50.304;19.028;2023-06-10T04:01:29;98133.78;;;18.13;69.04
40982;BME280;26708;50.304;19.028;2023-06-10T04:03:35;98090.19;;;17.77;68.67
40982;BME280;26708;50.304;19.028;2023-06-10T04:05:40;98088.13;;;17.85;68.58
40982;BME280;26708;50.304;19.028;2023-06-10T04:07:49;97949.44;;;17.00;68.14
40982;BME280;26708;50.304;19.028;2023-06-10T04:09:53;98141.22;;;18.04;68.30
40982;BME280;26708;50.304;19.028;2023-06-10T04:11:58;97933.03;;;16.91;68.21
40982;BME280;26708;50.304;19.028;2023-06-10T04:14:05;97973.88;;;17.05;68.29
40982;BME280;26708;50.304;19.028;2023-06-10T04:16:11;98030.09;;;17.35;68.44
40982;BME280;26708;50.304;19.028;2023-06-10T04:18:16;98046.59;;;17.41;68.07
40982;BME280;26708;50.304;19.028;2023-06-10T04:20:22;98036.22;;;17.35;68.23
40982;BME280;26708;50.304;19.028;2023-06-10T04:22:27;98124.19;;;17.88;68.51
40982;BME280;26708;50.304;19.028;2023-06-10T04:24:35;98185.28;;;18.06;68.22
40982;BME280;26708;50.304;19.028;2023-06-10T04:26:40;98071.59;;;17.56;68.17
40982;BME280;26708;50.304;19.028;2023-06-10T04:28:45;98047.69;;;17.36;68.21
40982;BME280;26708;50.304;19.028;2023-06-10T04:30:50;98183.31;;;18.11;68.57
40982;BME280;26708;50.304;19.028;2023-06-10T04:32:57;98075.50;;;17.46;68.26
40982;BME280;26708;50.304;19.028;2023-06-10T04:35:03;98039.19;;;17.28;68.50
40982;BME280;26708;50.304;19.028;2023-06-10T04:37:09;98135.81;;;17.85;68.44
40982;BME280;26708;50.304;19.028;2023-06-10T04:39:17;97990.72;;;17.03;68.84
40982;BME280;26708;50.304;19.028;2023-06-10T04:41:25;98121.84;;;17.80;68.93
40982;BME280;26708;50.304;19.028;2023-06-10T04:43:30;98122.03;;;17.76;68.89
40982;BME280;26708;50.304;19.028;2023-06-10T04:45:36;98048.47;;;17.38;68.96
40982;BME280;26708;50.304;19.028;2023-06-10T04:47:42;97942.72;;;16.90;69.28
40982;BME280;26708;50.304;19.028;2023-06-10T04:49:48;98055.47;;;17.63;69.13
40982;BME280;26708;50.304;19.028;2023-06-10T04:51:55;98052.91;;;17.60;68.76
40982;BME280;26708;50.304;19.028;2023-06-10T04:54:01;98049.66;;;17.52;68.48
40982;BME280;26708;50.304;19.028;2023-06-10T04:56:06;97964.19;;;17.06;68.40
40982;BME280;26708;50.304;19.028;2023-06-10T04:58:17;98103.47;;;17.99;68.13
40982;BME280;26708;50.304;19.028;2023-06-10T05:00:21;97988.06;;;17.26;68.18
40982;BME280;26708;50.304;19.028;2023-06-10T05:02:26;98173.34;;;18.41;68.29
40982;BME280;26708;50.304;19.028;2023-06-10T05:04:31;98169.09;;;18.37;68.65
40982;BME280;26708;50.304;19.028;2023-06-10T05:06:38;98010.94;;;17.50;68.43
40982;BME280;26708;50.304;19.028;2023-06-10T05:08:43;97997.59;;;17.31;68.54
40982;BME280;26708;50.304;19.028;2023-06-10T05:10:49;98176.84;;;18.41;68.44
40982;BME280;26708;50.304;19.028;2023-06-10T05:12:57;98167.28;;;18.37;68.79
40982;BME280;26708;50.304;19.028;2023-06-10T05:15:05;98181.84;;;18.49;68.71
40982;BME280;26708;50.304;19.028;2023-06-10T05:17:12;98138.53;;;18.27;69.15
40982;BME280;26708;50.304;19.028;2023-06-10T05:19:16;98080.75;;;17.93;68.44
40982;BME280;26708;50.304;19.028;2023-06-10T05:21:21;98163.06;;;18.32;69.15
40982;BME280;26708;50.304;19.028;2023-06-10T05:23:26;98188.44;;;18.60;68.67
40982;BME280;26708;50.304;19.028;2023-06-10T05:25:31;98167.97;;;18.64;69.02
40982;BME280;26708;50.304;19.028;2023-06-10T05:27:38;98183.69;;;18.68;68.45
40982;BME280;26708;50.304;19.028;2023-06-10T05:29:44;98186.28;;;18.70;68.29
40982;BME280;26708;50.304;19.028;2023-06-10T05:31:51;98152.56;;;18.52;68.41
40982;BME280;26708;50.304;19.028;2023-06-10T05:33:58;98075.38;;;17.95;68.09
40982;BME280;26708;50.304;19.028;2023-06-10T05:36:04;98095.84;;;18.13;68.43
40982;BME280;26708;50.304;19.028;2023-06-10T05:38:09;98198.13;;;18.83;68.01
40982;BME280;26708;50.304;19.028;2023-06-10T05:40:14;98024.63;;;17.84;68.29
40982;BME280;26708;50.304;19.028;2023-06-10T05:42:19;98105.44;;;18.15;68.61
40982;BME280;26708;50.304;19.028;2023-06-10T05:44:24;98152.44;;;18.55;68.60
40982;BME280;26708;50.304;19.028;2023-06-10T05:46:28;98202.41;;;18.85;69.09
40982;BME280;26708;50.304;19.028;2023-06-10T05:48:37;98154.16;;;18.56;68.39
40982;BME280;26708;50.304;19.028;2023-06-10T05:50:53;97976.38;;;17.54;67.96
40982;BME280;26708;50.304;19.028;2023-06-10T05:53:03;98163.53;;;18.64;68.10
40982;BME280;26708;50.304;19.028;2023-06-10T05:55:10;98021.28;;;17.79;68.25
40982;BME280;26708;50.304;19.028;2023-06-10T05:57:15;98151.84;;;18.68;68.79
40982;BME280;26708;50.304;19.028;2023-06-10T05:59:20;98208.56;;;19.07;67.94
40982;BME280;26708;50.304;19.028;2023-06-10T06:01:25;98159.56;;;18.74;67.16
40982;BME280;26708;50.304;19.028;2023-06-10T06:03:30;98169.41;;;18.92;67.13
40982;BME280;26708;50.304;19.028;2023-06-10T06:05:40;98214.38;;;19.17;66.74
40982;BME280;26708;50.304;19.028;2023-06-10T06:07:48;98031.38;;;18.12;66.76
40982;BME280;26708;50.304;19.028;2023-06-10T06:09:53;98211.72;;;19.17;66.73
40982;BME280;26708;50.304;19.028;2023-06-10T06:11:57;98212.84;;;19.11;66.29
40982;BME280;26708;50.304;19.028;2023-06-10T06:14:04;98001.72;;;17.83;66.36
40982;BME280;26708;50.304;19.028;2023-06-10T06:16:09;98211.22;;;19.07;66.90
40982;BME280;26708;50.304;19.028;2023-06-10T06:18:16;98198.59;;;18.92;66.12
40982;BME280;26708;50.304;19.028;2023-06-10T06:20:23;98115.25;;;18.13;66.82
40982;BME280;26708;50.304;19.028;2023-06-10T06:22:30;98019.94;;;17.69;66.36
40982;BME280;26708;50.304;19.028;2023-06-10T06:24:34;98118.94;;;18.31;66.44
40982;BME280;26708;50.304;19.028;2023-06-10T06:26:40;98229.69;;;18.89;66.87
40982;BME280;26708;50.304;19.028;2023-06-10T06:28:44;98175.75;;;18.47;66.67
40982;BME280;26708;50.304;19.028;2023-06-10T06:30:49;97994.03;;;17.54;66.60
40982;BME280;26708;50.304;19.028;2023-06-10T06:32:54;98220.56;;;18.74;66.89
40982;BME280;26708;50.304;19.028;2023-06-10T06:34:59;98176.78;;;18.64;66.27
40982;BME280;26708;50.304;19.028;2023-06-10T06:37:04;98236.94;;;19.05;66.68
40982;BME280;26708;50.304;19.028;2023-06-10T06:39:20;98061.84;;;18.02;66.53
40982;BME280;26708;50.304;19.028;2023-06-10T06:41:25;98240.59;;;19.03;66.71
40982;BME280;26708;50.304;19.028;2023-06-10T06:43:30;98217.44;;;18.86;67.08
40982;BME280;26708;50.304;19.028;2023-06-10T06:46:08;98200.97;;;18.78;67.01
40982;BME280;26708;50.304;19.028;2023-06-10T06:48:13;98210.94;;;18.72;66.74
40982;BME280;26708;50.304;19.028;2023-06-10T06:50:17;98055.75;;;17.77;67.18
40982;BME280;26708;50.304;19.028;2023-06-10T06:52:23;98167.84;;;18.22;67.45
40982;BME280;26708;50.304;19.028;2023-06-10T06:54:31;98256.53;;;18.81;67.40
40982;BME280;26708;50.304;19.028;2023-06-10T06:56:37;98229.38;;;18.53;68.20
40982;BME280;26708;50.304;19.028;2023-06-10T06:58:42;98266.44;;;18.76;68.05
40982;BME280;26708;50.304;19.028;2023-06-10T07:00:50;98025.25;;;17.23;68.13
40982;BME280;26708;50.304;19.028;2023-06-10T07:02:58;98126.59;;;17.72;68.58
40982;BME280;26708;50.304;19.028;2023-06-10T07:05:05;98012.31;;;17.15;68.29
40982;BME280;26708;50.304;19.028;2023-06-10T07:07:10;98247.66;;;18.61;68.64
40982;BME280;26708;50.304;19.028;2023-06-10T07:09:15;98215.16;;;18.33;68.80
40982;BME280;26708;50.304;19.028;2023-06-10T07:11:24;98199.19;;;18.36;68.44
40982;BME280;26708;50.304;19.028;2023-06-10T07:13:31;98184.63;;;18.01;68.95
40982;BME280;26708;50.304;19.028;2023-06-10T07:15:36;98261.00;;;18.58;68.56
40982;BME280;26708;50.304;19.028;2023-06-10T07:17:42;98276.97;;;18.79;68.52
40982;BME280;26708;50.304;19.028;2023-06-10T07:19:47;98061.22;;;17.50;67.93
40982;BME280;26708;50.304;19.028;2023-06-10T07:21:52;98150.00;;;18.06;68.35
40982;BME280;26708;50.304;19.028;2023-06-10T07:23:58;98271.69;;;18.78;68.50
40982;BME280;26708;50.304;19.028;2023-06-10T07:26:02;98158.03;;;18.03;68.76
40982;BME280;26708;50.304;19.028;2023-06-10T07:28:10;98048.09;;;17.25;68.62
40982;BME280;26708;50.304;19.028;2023-06-10T07:30:16;98102.53;;;17.78;68.40
40982;BME280;26708;50.304;19.028;2023-06-10T07:32:20;98271.69;;;18.78;68.67
40982;BME280;26708;50.304;19.028;2023-06-10T07:34:25;98185.00;;;18.14;69.14
40982;BME280;26708;50.304;19.028;2023-06-10T07:36:31;98276.59;;;18.88;68.57
40982;BME280;26708;50.304;19.028;2023-06-10T07:38:36;98288.78;;;18.92;69.04
40982;BME280;26708;50.304;19.028;2023-06-10T07:40:43;98234.88;;;18.70;68.59
40982;BME280;26708;50.304;19.028;2023-06-10T07:42:49;98156.22;;;18.26;68.36
40982;BME280;26708;50.304;19.028;2023-06-10T07:44:57;98195.72;;;18.55;68.08
40982;BME280;26708;50.304;19.028;2023-06-10T07:47:02;98229.13;;;18.81;66.84
40982;BME280;26708;50.304;19.028;2023-06-10T07:49:08;98217.50;;;18.63;67.39
40982;BME280;26708;50.304;19.028;2023-06-10T07:51:13;98009.47;;;17.43;67.26
40982;BME280;26708;50.304;19.028;2023-06-10T07:53:20;98194.16;;;18.50;67.25
40982;BME280;26708;50.304;19.028;2023-06-10T07:55:25;98258.31;;;18.81;67.64
40982;BME280;26708;50.304;19.028;2023-06-10T07:57:33;98161.06;;;18.38;67.57
40982;BME280;26708;50.304;19.028;2023-06-10T07:59:39;98065.28;;;17.83;67.02
40982;BME280;26708;50.304;19.028;2023-06-10T08:01:48;98291.94;;;19.23;66.88
40982;BME280;26708;50.304;19.028;2023-06-10T08:03:53;98265.03;;;19.11;66.05
40982;BME280;26708;50.304;19.028;2023-06-10T08:05:58;98310.47;;;19.25;66.50
40982;BME280;26708;50.304;19.028;2023-06-10T08:08:04;98284.66;;;19.28;66.34
40982;BME280;26708;50.304;19.028;2023-06-10T08:10:10;98138.25;;;18.34;65.79
40982;BME280;26708;50.304;19.028;2023-06-10T08:12:14;98174.34;;;18.60;65.54
40982;BME280;26708;50.304;19.028;2023-06-10T08:14:21;98115.25;;;18.13;65.56
40982;BME280;26708;50.304;19.028;2023-06-10T08:16:26;98297.59;;;19.36;65.34
40982;BME280;26708;50.304;19.028;2023-06-10T08:18:33;98250.16;;;19.07;65.13
40982;BME280;26708;50.304;19.028;2023-06-10T08:20:38;98273.13;;;19.08;65.67
40982;BME280;26708;50.304;19.028;2023-06-10T08:22:43;98206.19;;;18.58;65.88
40982;BME280;26708;50.304;19.028;2023-06-10T08:24:48;98295.28;;;19.28;66.18
40982;BME280;26708;50.304;19.028;2023-06-10T08:26:53;98201.25;;;18.71;66.20
40982;BME280;26708;50.304;19.028;2023-06-10T08:28:58;98234.44;;;19.02;66.99
40982;BME280;26708;50.304;19.028;2023-06-10T08:31:03;98324.66;;;19.45;66.46
40982;BME280;26708;50.304;19.028;2023-06-10T08:33:09;98186.44;;;18.87;66.12
40982;BME280;26708;50.304;19.028;2023-06-10T08:35:16;98208.41;;;18.90;65.86
40982;BME280;26708;50.304;19.028;2023-06-10T08:37:21;98317.84;;;19.60;65.82
40982;BME280;26708;50.304;19.028;2023-06-10T08:39:34;98314.13;;;19.64;65.84
40982;BME280;26708;50.304;19.028;2023-06-10T08:41:43;98303.09;;;19.73;66.06
40982;BME280;26708;50.304;19.028;2023-06-10T08:43:59;98188.81;;;19.14;65.87
40982;BME280;26708;50.304;19.028;2023-06-10T08:46:14;98171.25;;;19.12;65.26
40982;BME280;26708;50.304;19.028;2023-06-10T08:48:20;98089.63;;;18.77;64.66
40982;BME280;26708;50.304;19.028;2023-06-10T08:50:30;98201.91;;;19.39;64.91
40982;BME280;26708;50.304;19.028;2023-06-10T08:52:42;98260.13;;;19.63;64.29
40982;BME280;26708;50.304;19.028;2023-06-10T08:54:51;98311.59;;;20.21;64.16
40982;BME280;26708;50.304;19.028;2023-06-10T08:57:04;98201.38;;;19.51;63.11
40982;BME280;26708;50.304;19.028;2023-06-10T08:59:12;98317.31;;;20.32;62.69
40982;BME280;26708;50.304;19.028;2023-06-10T09:01:19;98114.56;;;19.13;63.01
40982;BME280;26708;50.304;19.028;2023-06-10T09:03:25;98325.56;;;20.44;62.50
40982;BME280;26708;50.304;19.028;2023-06-10T09:05:37;98320.09;;;20.47;62.37
40982;BME280;26708;50.304;19.028;2023-06-10T09:07:42;98330.69;;;20.48;62.11
40982;BME280;26708;50.304;19.028;2023-06-10T09:09:50;98102.44;;;19.27;62.49
40982;BME280;26708;50.304;19.028;2023-06-10T09:12:00;98176.31;;;19.76;61.83
40982;BME280;26708;50.304;19.028;2023-06-10T09:14:04;98100.00;;;19.23;61.90
40982;BME280;26708;50.304;19.028;2023-06-10T09:16:13;98152.97;;;19.64;61.77
40982;BME280;26708;50.304;19.028;2023-06-10T09:18:19;98130.78;;;19.65;61.59
40982;BME280;26708;50.304;19.028;2023-06-10T09:20:24;97994.75;;;19.02;61.66
40982;BME280;26708;50.304;19.028;2023-06-10T09:22:33;98154.22;;;19.94;60.51
40982;BME280;26708;50.304;19.028;2023-06-10T09:24:42;98336.69;;;20.90;60.81
40982;BME280;26708;50.304;19.028;2023-06-10T09:27:13;98011.31;;;19.27;60.52
40982;BME280;26708;50.304;19.028;2023-06-10T09:29:18;98320.31;;;20.99;60.53
40982;BME280;26708;50.304;19.028;2023-06-10T09:31:23;98321.44;;;20.94;60.92
40982;BME280;26708;50.304;19.028;2023-06-10T09:33:31;98144.75;;;19.89;60.30
40982;BME280;26708;50.304;19.028;2023-06-10T09:35:36;98172.81;;;19.94;61.31
40982;BME280;26708;50.304;19.028;2023-06-10T09:37:55;98122.97;;;19.81;60.75
40982;BME280;26708;50.304;19.028;2023-06-10T09:40:06;98154.38;;;20.10;60.94
40982;BME280;26708;50.304;19.028;2023-06-10T09:42:32;98321.03;;;21.03;60.54
40982;BME280;26708;50.304;19.028;2023-06-10T09:44:41;98142.19;;;19.87;60.32
40982;BME280;26708;50.304;19.028;2023-06-10T09:46:47;98125.09;;;19.93;61.04
40982;BME280;26708;50.304;19.028;2023-06-10T09:48:57;98118.63;;;19.98;60.00
40982;BME280;26708;50.304;19.028;2023-06-10T09:51:08;98094.09;;;19.73;59.46
40982;BME280;26708;50.304;19.028;2023-06-10T09:53:17;98086.13;;;19.73;59.38
40982;BME280;26708;50.304;19.028;2023-06-10T09:55:25;98258.72;;;20.88;58.20
40982;BME280;26708;50.304;19.028;2023-06-10T09:57:32;98304.25;;;21.36;59.18
40982;BME280;26708;50.304;19.028;2023-06-10T09:59:37;98209.38;;;20.81;57.09
40982;BME280;26708;50.304;19.028;2023-06-10T10:01:43;98111.16;;;20.42;56.07
40982;BME280;26708;50.304;19.028;2023-06-10T10:03:50;98277.97;;;21.47;56.32
40982;BME280;26708;50.304;19.028;2023-06-10T10:05:58;98136.81;;;20.78;56.67
40982;BME280;26708;50.304;19.028;2023-06-10T10:08:04;98296.13;;;21.73;55.12
40982;BME280;26708;50.304;19.028;2023-06-10T10:10:15;98079.72;;;20.49;54.89
40982;BME280;26708;50.304;19.028;2023-06-10T10:12:21;98274.59;;;21.61;53.82
40982;BME280;26708;50.304;19.028;2023-06-10T10:14:28;98314.56;;;21.78;54.24
40982;BME280;26708;50.304;19.028;2023-06-10T10:16:41;98196.50;;;21.08;54.30
40982;BME280;26708;50.304;19.028;2023-06-10T10:18:52;98271.44;;;21.53;54.05
40982;BME280;26708;50.304;19.028;2023-06-10T10:21:03;98313.78;;;21.76;54.56
40982;BME280;26708;50.304;19.028;2023-06-10T10:23:33;98310.16;;;21.77;55.44
40982;BME280;26708;50.304;19.028;2023-06-10T10:25:51;98310.88;;;21.80;54.74
40982;BME280;26708;50.304;19.028;2023-06-10T10:28:04;98070.50;;;20.40;54.78
40982;BME280;26708;50.304;19.028;2023-06-10T10:30:15;98209.50;;;20.97;54.82
40982;BME280;26708;50.304;19.028;2023-06-10T10:32:31;98261.34;;;21.42;55.43
40982;BME280;26708;50.304;19.028;2023-06-10T10:34:47;98261.56;;;21.38;55.80
40982;BME280;26708;50.304;19.028;2023-06-10T10:36:59;98310.25;;;21.75;54.80
40982;BME280;26708;50.304;19.028;2023-06-10T10:39:05;98243.47;;;21.44;54.14
40982;BME280;26708;50.304;19.028;2023-06-10T10:41:15;98267.47;;;21.61;53.00
40982;BME280;26708;50.304;19.028;2023-06-10T10:43:22;98058.75;;;20.43;54.27
40982;BME280;26708;50.304;19.028;2023-06-10T10:45:29;98218.06;;;21.37;54.36
40982;BME280;26708;50.304;19.028;2023-06-10T10:47:36;98280.38;;;21.86;54.35
40982;BME280;26708;50.304;19.028;2023-06-10T10:49:43;98193.25;;;21.37;54.03
40982;BME280;26708;50.304;19.028;2023-06-10T10:51:57;98061.94;;;20.68;54.32
40982;BME280;26708;50.304;19.028;2023-06-10T10:54:12;98294.25;;;22.09;53.77
40982;BME280;26708;50.304;19.028;2023-06-10T10:56:20;98050.66;;;20.63;52.74
40982;BME280;26708;50.304;19.028;2023-06-10T10:58:26;98306.44;;;21.98;52.59
40982;BME280;26708;50.304;19.028;2023-06-10T11:00:34;98311.00;;;21.96;52.53
40982;BME280;26708;50.304;19.028;2023-06-10T11:02:42;98265.97;;;21.73;52.95
40982;BME280;26708;50.304;19.028;2023-06-10T11:04:52;98191.22;;;21.25;53.25
40982;BME280;26708;50.304;19.028;2023-06-10T11:07:06;98182.41;;;21.23;53.97